Weather at Colac Airport

Public forecast

Using degrees Celsius for public forecast. Weather courtesy of forecast.io.

Closest aviation weather report (METAR) to Colac Airport

Closest report is Avalon Airport, 40.1 nm (74.3 km) ENE.

2024/05/29 23:00 (retrieved 27 minutes ago)

YMAV 292300Z AUTO 01015KT 9999 // NCD 16/09 Q1013 RF000/0000

Closest aviation forecast (TAF) to Colac Airport

Closest forecast is Avalon Airport, 40.1 nm (74.3 km) ENE.

2024/05/29 18:36 (retrieved 5 hours ago)

TAF TAF YMAV 291724Z 2918/3018 01013KT CAVOK FM292300 02018G32KT CAVOK FM300500 35014KT 9999 -RA SCT020 SCT040 FM301200 30014KT 9999 NSW SCT030 INTER 3005/3012 30015G26KT 6000 RA BKN030